Time;durP1;ratioP1;P1;durP2;ratioP2;P2;SDS_P1;SDS_P2;PMS_P1;PMS_P2;Temp;Humidity;BMP_temperature;BMP_pressure;BME280_temperature;BME280_humidity;BME280_pressure;Samples;Min_cycle;Max_cycle;Signal;HPM_P1;HPM_P2
2022/04/16 00:00:28;;;;;;;;;25.75;25.75;;;;;14.04;58.71;101769.47;5077586;27;45318;-72
2022/04/16 00:02:54;;;;;;;;;27.00;24.25;;;;;14.05;58.75;101778.28;5077213;27;45386;-73
2022/04/16 00:05:20;;;;;;;;;22.75;21.75;;;;;14.02;58.84;101773.97;5077323;27;45435;-72
2022/04/16 00:08:06;;;;;;;;;24.50;21.25;;;;;14.00;59.31;101770.50;5077050;27;45342;-73
2022/04/16 00:10:32;;;;;;;;;23.00;22.25;;;;;13.96;59.38;101769.75;5076615;27;45260;-73
2022/04/16 00:12:57;;;;;;;;;22.50;20.25;;;;;13.94;59.52;101768.94;5077044;27;45348;-73
2022/04/16 00:15:22;;;;;;;;;20.50;20.50;;;;;13.84;59.71;101760.47;5076359;27;45631;-72
2022/04/16 00:17:48;;;;;;;;;18.25;17.75;;;;;13.84;59.82;101776.34;5077035;27;45673;-73
2022/04/16 00:20:14;;;;;;;;;26.50;23.50;;;;;13.80;60.24;101766.78;5076888;27;45204;-72
2022/04/16 00:22:39;;;;;;;;;27.00;24.25;;;;;13.75;60.12;101770.50;5076933;27;45244;-72
2022/04/16 00:25:05;;;;;;;;;28.75;26.25;;;;;13.72;60.44;101769.69;5077241;27;45302;-72
2022/04/16 00:27:31;;;;;;;;;35.75;30.75;;;;;13.67;60.71;101770.75;5076379;27;46510;-73
2022/04/16 00:29:56;;;;;;;;;33.25;29.75;;;;;13.63;60.92;101763.84;5076875;27;45318;-73
2022/04/16 00:32:22;;;;;;;;;30.25;27.50;;;;;13.56;61.24;101766.69;5076489;27;45436;-72
2022/04/16 00:34:47;;;;;;;;;31.00;26.25;;;;;13.50;61.13;101761.59;5076755;27;45349;-72
2022/04/16 00:37:13;;;;;;;;;33.50;29.00;;;;;13.47;61.28;101767.00;5076325;27;46074;-72
2022/04/16 00:39:38;;;;;;;;;35.50;33.25;;;;;13.41;61.63;101759.25;5076393;27;45286;-73
2022/04/16 00:42:04;;;;;;;;;33.75;29.75;;;;;13.34;61.84;101760.38;5076750;27;45301;-72
2022/04/16 00:44:29;;;;;;;;;24.75;23.50;;;;;13.32;61.96;101756.91;5077117;27;45335;-72
2022/04/16 00:46:54;;;;;;;;;30.00;27.50;;;;;13.28;62.43;101762.28;5076530;27;45381;-71
2022/04/16 00:49:20;;;;;;;;;24.75;20.50;;;;;13.25;62.57;101770.31;5076414;27;45268;-72
2022/04/16 00:51:46;;;;;;;;;25.00;25.00;;;;;13.21;62.81;101750.19;5076536;27;45320;-71
2022/04/16 00:54:12;;;;;;;;;23.50;22.25;;;;;13.17;62.77;101767.06;5076742;27;45378;-72
2022/04/16 00:56:38;;;;;;;;;22.75;22.50;;;;;13.15;62.25;101753.03;5076202;27;45467;-72
2022/04/16 00:59:04;;;;;;;;;24.25;22.75;;;;;13.10;63.12;101744.41;5076082;28;45394;-71
2022/04/16 01:01:31;;;;;;;;;22.75;21.75;;;;;13.11;63.18;101754.06;5076604;27;45315;-72
2022/04/16 01:03:56;;;;;;;;;38.25;31.50;;;;;13.07;62.92;101753.28;5076525;27;45285;-72
2022/04/16 01:06:22;;;;;;;;;29.00;26.00;;;;;13.04;63.57;101748.09;5076498;27;46215;-72
2022/04/16 01:08:47;;;;;;;;;26.50;23.75;;;;;13.01;63.64;101748.19;5076476;27;45463;-73
2022/04/16 01:11:13;;;;;;;;;24.75;19.75;;;;;12.97;63.43;101742.16;5076554;27;45286;-71
2022/04/16 01:13:39;;;;;;;;;27.75;26.50;;;;;13.00;63.76;101747.34;5076768;27;45442;-72
2022/04/16 01:16:05;;;;;;;;;23.00;22.50;;;;;13.00;63.72;101742.06;5075984;27;46193;-72
2022/04/16 01:18:34;;;;;;;;;22.00;21.00;;;;;12.96;63.52;101745.72;5076515;27;45311;-73
2022/04/16 01:21:02;;;;;;;;;27.50;19.75;;;;;12.93;64.56;101744.94;5076676;27;45264;-73
2022/04/16 01:23:28;;;;;;;;;27.00;24.00;;;;;12.90;64.43;101745.91;5076379;27;45579;-71
2022/04/16 01:25:53;;;;;;;;;29.50;25.50;;;;;12.83;65.12;101739.09;5076126;27;45385;-72
2022/04/16 01:28:18;;;;;;;;;27.00;25.75;;;;;12.82;64.47;101737.34;5075997;27;45327;-71
2022/04/16 01:30:46;;;;;;;;;24.75;24.75;;;;;12.81;64.82;101741.75;5075972;27;45347;-72
2022/04/16 01:33:11;;;;;;;;;24.50;23.25;;;;;12.81;64.34;101749.69;5075753;27;45227;-70
2022/04/16 01:35:37;;;;;;;;;24.75;20.75;;;;;12.78;64.82;101747.13;5075642;27;46180;-70
2022/04/16 01:38:07;;;;;;;;;18.75;15.25;;;;;12.75;64.79;101746.38;5075619;27;45372;-72
2022/04/16 01:40:33;;;;;;;;;27.00;22.25;;;;;12.72;65.11;101755.25;5076259;27;45321;-72
2022/04/16 01:43:00;;;;;;;;;21.50;21.50;;;;;12.66;65.18;101753.63;5076161;28;45321;-72
2022/04/16 01:45:26;;;;;;;;;22.50;21.50;;;;;12.63;64.92;101753.72;5075652;27;46332;-72
2022/04/16 01:47:52;;;;;;;;;24.00;22.25;;;;;12.62;65.49;101745.88;5075934;27;45422;-71
2022/04/16 01:50:18;;;;;;;;;26.50;23.25;;;;;12.58;65.87;101755.66;5075710;27;45236;-71
2022/04/16 01:52:44;;;;;;;;;23.00;23.00;;;;;12.54;65.22;101751.38;5076162;27;45808;-73
2022/04/16 01:55:10;;;;;;;;;22.00;18.75;;;;;12.48;65.54;101746.28;5075414;27;45276;-70
2022/04/16 01:57:36;;;;;;;;;24.50;22.00;;;;;12.48;65.84;101762.09;5075437;27;45496;-74
2022/04/16 02:00:14;;;;;;;;;29.00;26.00;;;;;12.41;66.16;101759.66;5075748;27;45379;-71
2022/04/16 02:02:40;;;;;;;;;28.75;26.25;;;;;12.37;66.13;101758.00;5075809;28;45315;-72
2022/04/16 02:05:06;;;;;;;;;27.25;25.00;;;;;12.37;66.59;101765.09;5075310;27;46366;-72
2022/04/16 02:07:32;;;;;;;;;30.00;27.25;;;;;12.29;66.69;101760.00;5075722;27;45338;-71
2022/04/16 02:09:57;;;;;;;;;23.25;22.25;;;;;12.30;67.03;101763.53;5075354;27;45165;-70
2022/04/16 02:12:23;;;;;;;;;29.50;27.75;;;;;12.25;67.14;101753.09;5075583;27;45653;-73
2022/04/16 02:14:48;;;;;;;;;28.25;25.25;;;;;12.21;67.92;101762.00;5075409;27;45161;-71
2022/04/16 02:17:13;;;;;;;;;31.00;28.00;;;;;12.16;68.12;101758.63;5075181;28;45252;-72
2022/04/16 02:19:39;;;;;;;;;30.75;28.25;;;;;12.12;67.36;101756.06;5075455;27;45261;-72
2022/04/16 02:22:05;;;;;;;;;23.00;20.50;;;;;12.10;67.50;101759.66;5075731;27;45338;-71
2022/04/16 02:24:31;;;;;;;;;32.25;28.00;;;;;12.08;68.06;101759.72;5075345;27;47643;-71
2022/04/16 02:26:57;;;;;;;;;28.50;25.00;;;;;12.01;67.47;101750.25;5075138;28;45380;-72
2022/04/16 02:29:22;;;;;;;;;28.75;26.25;;;;;12.04;67.77;101765.09;5075280;27;45417;-73
2022/04/16 02:31:48;;;;;;;;;27.00;26.00;;;;;12.01;68.53;101760.78;5075312;27;45638;-73
2022/04/16 02:34:13;;;;;;;;;25.75;24.25;;;;;11.96;67.94;101762.66;5074881;27;45483;-71
2022/04/16 02:36:40;;;;;;;;;26.50;25.25;;;;;11.95;68.44;101767.03;5075083;27;45397;-72
2022/04/16 02:39:06;;;;;;;;;27.50;25.25;;;;;11.87;68.44;101753.19;5091151;27;45376;-72
2022/04/16 02:41:31;;;;;;;;;22.00;20.50;;;;;11.90;68.32;101768.09;5075259;27;45588;-72
2022/04/16 02:43:58;;;;;;;;;27.75;24.00;;;;;11.86;68.56;101767.28;5075305;27;45647;-72
2022/04/16 02:49:08;;;;;;;;;27.25;26.50;;;;;11.84;68.45;101771.75;5075147;28;45274;-73
2022/04/16 02:51:34;;;;;;;;;28.00;22.50;;;;;11.79;69.54;101769.25;5079005;28;45254;-71
2022/04/16 02:53:59;;;;;;;;;24.25;23.25;;;;;11.71;68.87;101760.66;5078208;27;46349;-72
2022/04/16 02:56:25;;;;;;;;;30.75;29.25;;;;;11.71;69.27;101768.59;5078512;27;45239;-71
2022/04/16 02:58:50;;;;;;;;;23.25;20.75;;;;;11.69;69.29;101765.13;5077110;27;45435;-72
2022/04/16 03:01:16;;;;;;;;;42.75;35.50;;;;;11.67;69.25;101761.66;5078633;27;45691;-71
2022/04/16 03:03:42;;;;;;;;;29.00;26.50;;;;;11.63;69.05;101754.69;5078453;27;45365;-71
2022/04/16 03:06:08;;;;;;;;;30.75;27.00;;;;;11.55;70.00;101754.91;5078555;27;45364;-71
2022/04/16 03:08:33;;;;;;;;;26.50;25.00;;;;;11.57;69.91;101754.88;5079055;27;45798;-73
2022/04/16 03:11:00;;;;;;;;;35.00;29.25;;;;;11.47;70.58;101744.56;5077065;27;45655;-72
2022/04/16 03:13:26;;;;;;;;;30.00;27.75;;;;;11.48;70.80;101746.28;5078602;27;45667;-73
2022/04/16 03:18:35;;;;;;;;;34.25;31.00;;;;;11.42;70.72;101756.97;5078694;28;45350;-72
2022/04/16 03:21:01;;;;;;;;;26.00;26.00;;;;;11.35;70.14;101753.66;5078707;27;45160;-71
2022/04/16 03:23:27;;;;;;;;;32.50;28.50;;;;;11.36;70.70;101755.38;5093548;27;47078;-71
2022/04/16 03:25:53;;;;;;;;;31.25;29.00;;;;;11.37;70.48;101754.47;5078040;27;45481;-72
2022/04/16 03:28:19;;;;;;;;;27.25;26.00;;;;;11.32;70.26;101755.47;5077901;28;45371;-72
2022/04/16 03:30:44;;;;;;;;;31.00;26.25;;;;;11.26;71.03;101751.25;5078253;27;45319;-71
2022/04/16 03:33:11;;;;;;;;;36.75;29.50;;;;;11.26;70.63;101761.78;5077953;27;46341;-72
2022/04/16 03:35:36;;;;;;;;;33.25;29.00;;;;;11.25;70.33;101755.63;5078111;27;45321;-72
2022/04/16 03:38:02;;;;;;;;;32.50;30.50;;;;;11.21;70.38;101748.72;5077837;27;45416;-72
2022/04/16 03:40:27;;;;;;;;;29.50;28.00;;;;;11.19;71.13;101747.88;5078012;27;45529;-72
2022/04/16 03:42:58;;;;;;;;;30.50;29.00;;;;;11.15;71.08;101756.75;5077688;27;45388;-72
2022/04/16 03:45:29;;;;;;;;;36.00;31.25;;;;;11.10;71.23;101753.38;5077668;27;45173;-72
2022/04/16 03:47:55;;;;;;;;;34.25;28.25;;;;;11.07;70.78;101751.66;5077968;27;45287;-71
2022/04/16 03:50:22;;;;;;;;;35.75;33.00;;;;;11.07;71.44;101750.81;5077937;27;45644;-71
2022/04/16 03:52:49;;;;;;;;;36.00;31.25;;;;;11.03;72.30;101757.03;5077634;27;46358;-72
2022/04/16 04:00:52;;;;;;;;;35.25;32.25;;;;;10.91;72.14;101737.13;5077420;27;45273;-73
2022/04/16 04:03:18;;;;;;;;;38.50;35.00;;;;;10.88;72.04;101737.19;5076932;27;45892;-71
2022/04/16 04:05:45;;;;;;;;;29.50;26.50;;;;;10.89;72.02;101739.81;5092966;27;45211;-72
2022/04/16 04:08:11;;;;;;;;;38.75;34.50;;;;;10.86;72.59;101742.50;5077967;27;45520;-73
2022/04/16 04:10:37;;;;;;;;;38.25;33.50;;;;;10.84;72.45;101738.16;5077807;28;45577;-72
2022/04/16 04:13:03;;;;;;;;;33.75;30.50;;;;;10.81;72.27;101741.75;5077168;27;46416;-73
2022/04/16 04:15:29;;;;;;;;;37.00;33.25;;;;;10.80;72.40;101745.28;5077076;27;45427;-73
2022/04/16 04:18:01;;;;;;;;;37.25;35.25;;;;;10.79;72.20;101746.19;5077583;27;45337;-73
2022/04/16 04:20:28;;;;;;;;;35.00;32.25;;;;;10.78;72.64;101745.31;5077231;27;45393;-73
2022/04/16 04:22:53;;;;;;;;;35.75;32.50;;;;;10.75;72.33;101750.63;5076860;27;46152;-73
2022/04/16 04:25:19;;;;;;;;;33.00;29.50;;;;;10.75;71.89;101752.41;5076999;27;45295;-73
2022/04/16 04:27:44;;;;;;;;;35.50;33.25;;;;;10.75;72.76;101755.91;5076998;28;45445;-72
2022/04/16 04:30:10;;;;;;;;;37.75;31.75;;;;;10.72;72.56;101753.34;5077601;27;45381;-71
2022/04/16 04:32:36;;;;;;;;;38.75;34.00;;;;;10.71;72.55;101758.66;5076719;27;46091;-70
2022/04/16 04:35:03;;;;;;;;;30.25;29.50;;;;;10.69;72.63;101761.28;5077237;27;45236;-71
2022/04/16 04:37:28;;;;;;;;;36.25;33.50;;;;;10.67;72.64;101768.34;5093028;27;45232;-81
2022/04/16 04:39:54;;;;;;;;;31.50;29.50;;;;;10.60;72.77;101757.13;5077225;27;45384;-75
2022/04/16 04:42:37;;;;;;;;;41.50;36.00;;;;;10.66;73.10;101766.63;5076795;27;45939;-73
2022/04/16 04:45:11;;;;;;;;;47.50;37.25;;;;;10.62;73.24;101760.56;5076995;27;45303;-76
2022/04/16 04:47:36;;;;;;;;;45.00;36.00;;;;;10.58;72.66;101751.00;5076763;27;45303;-73
2022/04/16 04:50:03;;;;;;;;;42.50;34.25;;;;;10.57;73.16;101758.94;5076785;27;45521;-72
2022/04/16 04:52:30;;;;;;;;;44.00;36.50;;;;;10.51;73.44;101760.78;5076435;28;46239;-74
2022/04/16 04:54:57;;;;;;;;;40.00;32.25;;;;;10.52;73.15;101762.53;5076374;27;45322;-73
2022/04/16 04:57:22;;;;;;;;;40.25;35.25;;;;;10.51;73.63;101759.91;5076492;27;45289;-74
2022/04/16 04:59:48;;;;;;;;;49.25;37.00;;;;;10.48;73.59;101760.84;5075200;28;45406;-73
2022/04/16 05:02:13;;;;;;;;;42.00;35.25;;;;;10.48;73.89;101763.50;5075094;27;47145;-74
2022/04/16 05:04:39;;;;;;;;;40.50;35.50;;;;;10.47;73.66;101771.41;5076160;27;45397;-73
2022/04/16 05:07:05;;;;;;;;;46.25;37.50;;;;;10.44;73.38;101764.44;5076590;27;45261;-73
2022/04/16 05:09:31;;;;;;;;;45.75;38.00;;;;;10.43;73.82;101769.72;5076561;27;45350;-73
2022/04/16 05:11:56;;;;;;;;;41.25;35.75;;;;;10.46;73.57;101777.56;5076522;27;45434;-74
2022/04/16 05:14:22;;;;;;;;;45.50;36.25;;;;;10.41;74.15;101767.16;5075510;27;45280;-73
2022/04/16 05:16:48;;;;;;;;;38.25;33.75;;;;;10.43;73.18;101775.00;5076390;27;45203;-74
2022/04/16 05:19:17;;;;;;;;;42.25;35.75;;;;;10.44;73.89;101771.47;5092612;27;45378;-73
2022/04/16 05:21:43;;;;;;;;;49.50;38.00;;;;;10.42;74.01;101771.50;5076380;27;45412;-74
2022/04/16 05:24:09;;;;;;;;;42.50;36.50;;;;;10.42;74.34;101775.88;5076020;27;45436;-74
2022/04/16 05:26:35;;;;;;;;;37.50;32.50;;;;;10.42;74.04;101794.31;5075989;27;45348;-72
2022/04/16 05:29:01;;;;;;;;;39.75;35.75;;;;;10.37;73.89;101775.97;5076648;27;45251;-74
2022/04/16 05:31:27;;;;;;;;;48.25;39.25;;;;;10.39;74.04;101787.31;5075999;27;46297;-74
2022/04/16 05:36:38;;;;;;;;;43.75;37.75;;;;;10.35;74.53;101791.75;5077477;28;45381;-73
2022/04/16 05:39:04;;;;;;;;;48.25;40.25;;;;;10.30;74.63;101796.25;5077582;27;45561;-74
2022/04/16 05:41:29;;;;;;;;;45.75;37.00;;;;;10.33;74.12;101797.97;5077412;28;45414;-73
2022/04/16 05:43:55;;;;;;;;;43.50;36.00;;;;;10.27;74.73;101796.31;5076852;27;45222;-73
2022/04/16 05:46:21;;;;;;;;;45.75;38.25;;;;;10.31;74.59;101800.59;5076656;27;45408;-73
2022/04/16 05:48:46;;;;;;;;;46.00;38.25;;;;;10.31;75.03;101805.03;5092189;27;45525;-75
2022/04/16 05:51:12;;;;;;;;;42.50;35.00;;;;;10.29;74.82;101806.81;5076012;27;46475;-75
2022/04/16 05:53:39;;;;;;;;;50.25;40.50;;;;;10.27;74.87;101812.09;5076197;27;45400;-74
2022/04/16 05:56:06;;;;;;;;;43.00;38.25;;;;;10.29;75.07;101809.44;5076489;27;45447;-73
2022/04/16 05:58:31;;;;;;;;;53.00;43.50;;;;;10.29;75.07;101812.06;5075792;27;45599;-75
2022/04/16 06:00:58;;;;;;;;;49.00;39.50;;;;;10.30;75.05;101809.41;5076281;27;45359;-73
2022/04/16 06:03:24;;;;;;;;;48.50;38.75;;;;;10.25;75.18;101813.88;5076427;27;45455;-73
2022/04/16 06:05:50;;;;;;;;;52.25;41.25;;;;;10.29;75.29;101820.81;5077215;27;45274;-74
2022/04/16 06:08:16;;;;;;;;;53.50;40.75;;;;;10.30;74.79;101817.28;5076667;28;45627;-73
2022/04/16 06:10:41;;;;;;;;;48.25;39.00;;;;;10.31;74.49;101818.16;5076507;27;46325;-74
2022/04/16 06:13:06;;;;;;;;;49.75;41.00;;;;;10.35;74.68;101822.47;5074734;28;45348;-75
2022/04/16 06:15:32;;;;;;;;;43.00;38.00;;;;;10.41;74.01;101824.13;5076822;27;45455;-72
2022/04/16 06:17:58;;;;;;;;;49.25;38.75;;;;;10.43;74.71;101822.34;5076456;28;45318;-73
2022/04/16 06:20:24;;;;;;;;;49.75;41.00;;;;;10.37;74.19;101813.63;5075926;27;46151;-74
2022/04/16 06:22:49;;;;;;;;;54.00;41.00;;;;;10.46;73.81;101833.69;5075829;28;45472;-70
2022/04/16 06:25:15;;;;;;;;;48.25;38.50;;;;;10.47;73.98;101834.53;5075324;27;45457;-72
2022/04/16 06:27:40;;;;;;;;;48.75;40.25;;;;;10.48;74.05;101831.00;5091080;27;45243;-73
2022/04/16 06:30:10;;;;;;;;;52.50;41.50;;;;;10.49;74.01;101838.00;5076073;27;46367;-72
2022/04/16 06:32:36;;;;;;;;;52.25;42.50;;;;;10.46;74.30;101831.06;5075888;27;45330;-71
2022/04/16 06:35:05;;;;;;;;;52.25;43.75;;;;;10.46;73.88;101827.53;5075582;27;45310;-73
2022/04/16 06:37:34;;;;;;;;;51.00;41.50;;;;;10.46;73.50;101827.53;5075646;27;45493;-71
2022/04/16 06:39:59;;;;;;;;;53.00;41.75;;;;;10.51;74.29;101834.47;5074765;27;46659;-72
2022/04/16 06:42:25;;;;;;;;;53.00;40.75;;;;;10.52;73.76;101836.19;5074921;27;45318;-71
2022/04/16 06:44:50;;;;;;;;;50.75;41.25;;;;;10.59;73.09;101833.44;5074784;27;45353;-72
2022/04/16 06:47:16;;;;;;;;;50.50;42.25;;;;;10.58;73.26;101819.41;5075113;27;45444;-69
2022/04/16 06:49:41;;;;;;;;;41.50;35.75;;;;;10.65;72.74;101822.78;5089837;27;46099;-72
2022/04/16 06:52:07;;;;;;;;;46.25;38.75;;;;;10.64;72.63;101831.56;5074481;27;45374;-76
2022/04/16 06:54:32;;;;;;;;;49.00;39.25;;;;;10.64;72.60;101821.94;5074678;27;45429;-71
2022/04/16 06:56:57;;;;;;;;;55.00;42.75;;;;;10.77;72.31;101829.56;5074641;27;45478;-72
2022/04/16 06:59:23;;;;;;;;;48.50;39.75;;;;;10.81;71.81;101832.09;5074392;27;45421;-73
2022/04/16 07:01:48;;;;;;;;;50.00;41.75;;;;;10.86;71.27;101828.50;5075104;27;45294;-73
2022/04/16 07:04:13;;;;;;;;;43.50;34.50;;;;;10.94;71.30;101830.06;5074943;27;45302;-73
2022/04/16 07:06:39;;;;;;;;;37.00;33.00;;;;;11.01;71.05;101824.66;5075117;27;45369;-70
2022/04/16 07:09:05;;;;;;;;;52.75;41.00;;;;;11.09;70.36;101830.63;5074474;27;45928;-70
2022/04/16 07:11:30;;;;;;;;;50.00;38.75;;;;;11.15;70.05;101825.22;5074600;27;45980;-72
2022/04/16 07:13:56;;;;;;;;;53.25;43.25;;;;;11.22;69.54;101818.91;5073142;27;45240;-73
2022/04/16 07:16:21;;;;;;;;;49.50;41.50;;;;;11.24;69.36;101809.22;5074826;27;45220;-71
2022/04/16 07:18:46;;;;;;;;;48.00;41.25;;;;;11.35;68.36;101814.25;5075194;27;45463;-73
2022/04/16 07:21:12;;;;;;;;;49.50;38.25;;;;;11.47;68.63;101823.59;5074455;27;45370;-75
2022/04/16 07:23:37;;;;;;;;;43.50;36.50;;;;;11.54;68.53;101819.91;5072565;27;50590;-72
2022/04/16 07:26:02;;;;;;;;;49.25;38.75;;;;;11.67;67.84;101823.13;5074707;27;45526;-70
2022/04/16 07:28:28;;;;;;;;;46.75;37.25;;;;;11.79;67.38;101826.34;5074280;27;45466;-69
2022/04/16 07:30:53;;;;;;;;;46.50;38.00;;;;;11.86;66.86;101821.81;5074493;27;45350;-68
2022/04/16 07:33:19;;;;;;;;;46.00;36.25;;;;;11.98;66.84;101829.41;5074495;27;45421;-69
2022/04/16 07:35:44;;;;;;;;;44.50;37.75;;;;;12.07;66.49;101825.66;5074451;27;45585;-67
2022/04/16 07:38:10;;;;;;;;;41.75;35.00;;;;;12.12;65.80;101824.66;5076720;27;46188;-69
2022/04/16 07:40:35;;;;;;;;;40.50;33.75;;;;;12.27;65.90;101827.78;5077494;27;45604;-71
2022/04/16 07:43:01;;;;;;;;;46.00;37.75;;;;;12.35;64.81;101833.72;5077679;27;45372;-69
2022/04/16 07:45:31;;;;;;;;;45.25;36.75;;;;;12.43;64.58;101836.16;5077582;27;45488;-70
2022/04/16 07:47:57;;;;;;;;;51.50;40.25;;;;;12.55;64.74;101840.19;5077188;27;45692;-70
2022/04/16 07:50:22;;;;;;;;;46.50;37.75;;;;;12.63;64.42;101840.84;5077277;27;45386;-73
2022/04/16 07:52:48;;;;;;;;;42.25;36.50;;;;;12.79;64.07;101843.91;5077115;27;45264;-71
2022/04/16 07:55:15;;;;;;;;;47.00;37.50;;;;;12.94;63.78;101845.25;5077139;27;45445;-71
2022/04/16 07:57:40;;;;;;;;;51.00;40.00;;;;;13.03;63.24;101849.38;5075246;28;47647;-70
2022/04/16 08:00:07;;;;;;;;;40.75;34.75;;;;;13.10;62.63;101847.44;5076909;27;45437;-72
2022/04/16 08:02:33;;;;;;;;;45.75;36.50;;;;;13.22;63.05;101847.03;5077120;27;45458;-72
2022/04/16 08:04:58;;;;;;;;;44.50;36.75;;;;;13.35;62.66;101852.81;5077302;27;45485;-70
2022/04/16 08:07:24;;;;;;;;;45.00;36.75;;;;;13.52;62.25;101852.31;5076644;27;45491;-69
2022/04/16 08:09:50;;;;;;;;;40.50;35.00;;;;;13.64;61.31;101856.34;5077219;28;45414;-70
2022/04/16 08:12:15;;;;;;;;;39.25;33.50;;;;;13.73;60.54;101855.16;5077156;27;45296;-69
2022/04/16 08:14:40;;;;;;;;;42.50;36.25;;;;;13.81;60.46;101853.16;5077152;27;45282;-73
2022/04/16 08:17:06;;;;;;;;;45.00;35.25;;;;;13.84;60.89;101849.50;5076618;27;46728;-73
2022/04/16 08:19:31;;;;;;;;;38.25;33.00;;;;;13.96;60.31;101856.19;5076899;27;45393;-72
2022/04/16 08:21:57;;;;;;;;;39.75;33.75;;;;;14.06;59.84;101854.06;5077012;27;45611;-71
2022/04/16 08:24:38;;;;;;;;;40.75;34.00;;;;;14.12;59.40;101859.16;5077804;27;45242;-71
2022/04/16 08:27:04;;;;;;;;;35.50;33.00;;;;;14.19;59.57;101870.41;5076756;27;46221;-72
2022/04/16 08:29:30;;;;;;;;;36.50;32.75;;;;;14.31;59.68;101867.31;5076608;27;45451;-70
2022/04/16 08:31:55;;;;;;;;;45.75;36.50;;;;;14.36;58.01;101870.66;5092293;27;45285;-69
2022/04/16 08:34:21;;;;;;;;;34.50;32.50;;;;;14.32;58.92;101861.09;5077108;27;45249;-73
2022/04/16 08:36:46;;;;;;;;;40.75;36.50;;;;;14.39;58.76;101867.91;5092108;27;47295;-71
2022/04/16 08:39:11;;;;;;;;;36.75;33.00;;;;;14.48;59.06;101868.50;5076546;27;45342;-70
2022/04/16 08:41:38;;;;;;;;;39.75;34.00;;;;;14.60;58.82;101868.94;5075281;28;45291;-71
2022/04/16 08:44:05;;;;;;;;;37.75;34.50;;;;;14.69;58.02;101869.50;5076867;27;45368;-70
2022/04/16 08:46:32;;;;;;;;;39.75;32.75;;;;;14.71;58.17;101873.00;5076787;27;45501;-70
2022/04/16 08:48:58;;;;;;;;;54.00;41.00;;;;;14.82;57.95;101880.53;5076461;27;45408;-71
2022/04/16 08:51:26;;;;;;;;;35.25;31.00;;;;;14.85;58.24;101878.63;5076965;27;45476;-72
2022/04/16 08:53:52;;;;;;;;;38.25;32.50;;;;;14.98;58.22;101873.75;5076890;27;45579;-72
2022/04/16 08:56:17;;;;;;;;;41.00;33.50;;;;;14.98;57.45;101865.81;5076231;27;46006;-71
2022/04/16 08:58:43;;;;;;;;;45.75;35.25;;;;;15.06;57.17;101872.59;5075819;27;45264;-70
2022/04/16 09:01:09;;;;;;;;;39.00;33.25;;;;;15.21;57.76;101879.94;5076311;27;45253;-71
2022/04/16 09:03:36;;;;;;;;;37.00;32.75;;;;;15.33;56.85;101875.94;5076280;27;45589;-69
2022/04/16 09:06:02;;;;;;;;;49.25;40.00;;;;;15.37;56.91;101876.69;5075988;27;45356;-72
2022/04/16 09:08:32;;;;;;;;;41.00;35.25;;;;;15.48;56.93;101879.78;5075958;27;45334;-69
2022/04/16 09:11:21;;;;;;;;;42.50;35.25;;;;;15.54;56.41;101879.53;5075976;27;45379;-72
2022/04/16 09:13:49;;;;;;;;;32.50;29.50;;;;;15.57;55.92;101882.06;5065309;28;45523;-70
2022/04/16 09:16:16;;;;;;;;;43.00;34.00;;;;;15.65;56.45;101876.44;5075830;28;45566;-71
2022/04/16 09:18:51;;;;;;;;;28.50;27.25;;;;;15.76;55.99;101881.28;5075703;27;45234;-71
2022/04/16 09:21:18;;;;;;;;;36.75;33.50;;;;;15.84;55.91;101878.34;5075672;27;45320;-69
2022/04/16 09:23:53;;;;;;;;;43.00;33.50;;;;;15.91;56.07;101866.56;5075869;27;45535;-70
2022/04/16 09:26:31;;;;;;;;;39.25;32.75;;;;;15.97;54.52;101876.06;5075779;27;46758;-71
2022/04/16 09:29:04;;;;;;;;;44.00;35.50;;;;;15.98;54.69;101864.53;5075791;27;45417;-70
2022/04/16 09:31:34;;;;;;;;;36.00;32.50;;;;;16.04;54.45;101872.22;5091026;27;45334;-72
2022/04/16 09:33:59;;;;;;;;;45.50;36.00;;;;;16.12;54.94;101863.94;5075889;27;45455;-72
2022/04/16 09:36:26;;;;;;;;;41.25;35.00;;;;;16.24;54.68;101867.84;5075781;27;46360;-69
2022/04/16 09:39:06;;;;;;;;;37.25;29.75;;;;;16.26;52.91;101864.19;5073709;27;45432;-71
2022/04/16 09:41:33;;;;;;;;;30.25;29.75;;;;;16.28;53.30;101859.66;5075505;27;45419;-72
2022/04/16 09:43:59;;;;;;;;;33.00;32.00;;;;;16.39;53.60;101861.00;5075871;27;45459;-68
2022/04/16 09:46:28;;;;;;;;;29.25;29.25;;;;;16.54;53.34;101862.09;5075785;27;45469;-73
2022/04/16 09:49:04;;;;;;;;;27.50;23.50;;;;;16.68;52.75;101856.19;5075723;27;45290;-70
2022/04/16 09:51:37;;;;;;;;;35.75;33.25;;;;;16.82;52.76;101855.53;5075118;27;45364;-68
2022/04/16 09:54:05;;;;;;;;;28.00;27.75;;;;;16.88;51.31;101853.47;5075742;27;45137;-70
2022/04/16 09:56:35;;;;;;;;;32.00;31.00;;;;;16.85;50.68;101842.09;5075150;27;45249;-71
2022/04/16 09:59:08;;;;;;;;;32.75;31.50;;;;;16.90;51.85;101850.72;5073298;27;45345;-71
2022/04/16 10:01:38;;;;;;;;;34.75;29.25;;;;;16.98;51.73;101847.75;5075041;27;45284;-70
2022/04/16 10:04:03;;;;;;;;;25.75;25.50;;;;;17.12;51.03;101849.75;5090715;27;45575;-71
2022/04/16 10:06:30;;;;;;;;;38.25;30.25;;;;;17.12;51.08;101845.28;5075242;27;45460;-71
2022/04/16 10:09:00;;;;;;;;;35.75;32.50;;;;;17.17;51.04;101859.22;5075417;27;45416;-70
2022/04/16 10:11:42;;;;;;;;;31.00;29.00;;;;;17.17;51.13;101853.06;5074442;27;45676;-69
2022/04/16 10:14:19;;;;;;;;;21.50;20.00;;;;;17.20;51.06;101853.75;5075180;27;45330;-72
2022/04/16 10:17:05;;;;;;;;;33.00;30.00;;;;;17.26;50.62;101849.97;5074686;27;45388;-70
2022/04/16 10:19:45;;;;;;;;;36.25;30.00;;;;;17.20;50.37;101858.22;5075127;27;45303;-69
2022/04/16 10:22:21;;;;;;;;;37.50;30.75;;;;;17.30;50.54;101856.84;5075057;28;45362;-70
2022/04/16 10:24:48;;;;;;;;;30.00;27.50;;;;;17.43;50.35;101864.22;5075421;27;45339;-71
2022/04/16 10:27:22;;;;;;;;;33.00;29.75;;;;;17.46;48.90;101864.09;5074638;27;46271;-70
2022/04/16 10:29:48;;;;;;;;;32.25;27.00;;;;;17.54;50.06;101864.56;5073188;27;46153;-71
2022/04/16 10:32:16;;;;;;;;;33.50;29.75;;;;;17.61;48.75;101863.31;5074522;27;45289;-71
2022/04/16 10:34:42;;;;;;;;;26.25;24.00;;;;;17.70;49.25;101864.69;5074891;27;45648;-71
2022/04/16 10:37:18;;;;;;;;;18.75;18.75;;;;;17.75;48.49;101851.13;5073392;27;47897;-70
2022/04/16 10:39:46;;;;;;;;;24.00;20.50;;;;;17.73;45.69;101851.22;5074681;27;45250;-71
2022/04/16 10:42:12;;;;;;;;;31.25;28.25;;;;;17.62;46.80;101835.78;5074657;27;45378;-70
2022/04/16 10:44:46;;;;;;;;;28.75;27.50;;;;;17.83;47.69;101848.09;5074615;27;45260;-70
2022/04/16 10:47:16;;;;;;;;;31.25;27.25;;;;;17.99;47.93;101843.69;5074182;27;45297;-72
2022/04/16 10:49:43;;;;;;;;;27.00;20.00;;;;;18.15;46.53;101840.28;5074311;27;45303;-71
2022/04/16 10:52:21;;;;;;;;;23.25;23.25;;;;;18.20;45.38;101855.09;5074363;27;45241;-70
2022/04/16 10:54:48;;;;;;;;;28.50;24.75;;;;;18.26;47.08;101848.56;5074382;27;45372;-72
2022/04/16 10:57:22;;;;;;;;;23.25;21.00;;;;;18.30;45.74;101843.94;5073914;27;46036;-71
2022/04/16 10:59:48;;;;;;;;;23.00;20.25;;;;;18.34;45.73;101837.50;5089153;27;45460;-70
2022/04/16 11:02:34;;;;;;;;;28.25;25.75;;;;;18.39;45.72;101840.78;5073912;27;45324;-71
2022/04/16 11:05:07;;;;;;;;;30.25;29.00;;;;;18.46;45.38;101847.50;5072939;27;45399;-70
2022/04/16 11:07:35;;;;;;;;;25.00;23.50;;;;;18.42;45.65;101824.66;5073954;27;46185;-72
2022/04/16 11:10:06;;;;;;;;;22.50;18.00;;;;;18.59;45.91;101839.72;5074062;27;45436;-72
2022/04/16 11:12:31;;;;;;;;;19.00;18.50;;;;;18.67;44.08;101837.50;5075859;27;45414;-71
2022/04/16 11:14:58;;;;;;;;;25.25;23.00;;;;;18.66;43.02;101842.91;5077626;27;45695;-71
2022/04/16 11:17:24;;;;;;;;;16.75;16.50;;;;;18.73;44.19;101851.44;5077785;27;45486;-71
2022/04/16 11:20:05;;;;;;;;;20.75;19.25;;;;;18.77;43.68;101837.84;5077302;27;45327;-72
2022/04/16 11:22:30;;;;;;;;;21.25;17.50;;;;;18.79;44.26;101835.97;5076416;28;45299;-70